createdAt,value
2018-11-22T12:17:40.728Z,99760.39
2018-11-22T12:20:08.172Z,99757.59
2018-11-22T12:22:35.612Z,99752.21
2018-11-22T12:25:03.059Z,99757.65
2018-11-22T12:27:30.522Z,99758.81
2018-11-22T12:29:57.962Z,99753.27
2018-11-22T12:32:25.397Z,99757.41
2018-11-22T12:34:54.769Z,99756.94
2018-11-22T12:37:22.338Z,99750.59
2018-11-22T12:39:49.769Z,99747.02
2018-11-22T12:42:17.193Z,99752.68
2018-11-22T12:44:44.640Z,99741.34
2018-11-22T12:47:12.132Z,99746.86
2018-11-22T12:49:39.578Z,99745.36
2018-11-22T12:52:07.011Z,99736.16
2018-11-22T12:54:34.462Z,99735.39
2018-11-22T12:57:04.108Z,99734.20
2018-11-22T12:59:31.767Z,99730.84
2018-11-22T13:01:59.279Z,99730.94
2018-11-22T13:04:26.726Z,99738.21
2018-11-22T13:06:54.172Z,99731.63
2018-11-22T13:09:21.633Z,99732.06
2018-11-22T13:11:49.093Z,99728.01
2018-11-22T13:14:16.521Z,99735.47
2018-11-22T13:16:43.975Z,99731.51
2018-11-22T13:19:11.397Z,99733.60
2018-11-22T13:21:38.856Z,99730.45
2018-11-22T13:24:06.297Z,99732.25
2018-11-22T13:26:33.741Z,99729.58
2018-11-22T13:29:01.178Z,99728.29
2018-11-22T13:31:28.629Z,99725.53
2018-11-22T13:33:56.079Z,99722.19
2018-11-22T13:36:23.537Z,99719.77
2018-11-22T13:38:51.025Z,99717.50
2018-11-22T13:41:18.469Z,99721.75
2018-11-22T13:43:45.893Z,99725.11
2018-11-22T13:46:13.343Z,99723.34
2018-11-22T13:48:40.798Z,99716.80
2018-11-22T13:51:08.253Z,99714.61
2018-11-22T13:53:35.707Z,99720.83
2018-11-22T13:58:25.494Z,99721.07
2018-11-22T14:00:52.925Z,99715.41
2018-11-22T14:03:20.357Z,99724.80
2018-11-22T14:05:47.802Z,99722.81
2018-11-22T14:08:15.234Z,99720.19
2018-11-22T14:10:42.687Z,99727.09
2018-11-22T14:13:10.137Z,99719.89
2018-11-22T14:15:37.581Z,99723.14
2018-11-22T14:18:05.054Z,99719.48
2018-11-22T14:20:32.526Z,99718.05
2018-11-22T14:22:59.981Z,99719.39
2018-11-22T14:25:27.410Z,99720.92
2018-11-22T14:27:55.045Z,99724.40
2018-11-22T14:30:22.505Z,99721.17
2018-11-22T14:32:49.974Z,99720.97
2018-11-22T14:35:17.401Z,99717.95
2018-11-22T14:37:44.834Z,99717.09
2018-11-22T14:40:12.274Z,99719.97
2018-11-22T14:42:39.698Z,99716.63
2018-11-22T14:45:07.140Z,99709.23
2018-11-22T14:47:34.633Z,99713.91
2018-11-22T14:50:02.082Z,99713.52
2018-11-22T14:52:29.531Z,99710.37
2018-11-22T14:54:56.984Z,99715.62
2018-11-22T14:57:24.445Z,99719.98
2018-11-22T14:59:51.869Z,99713.89
2018-11-22T15:02:20.606Z,99717.04
2018-11-22T15:04:48.097Z,99719.70
2018-11-22T15:07:15.522Z,99714.02
2018-11-22T15:09:42.964Z,99716.36
2018-11-22T15:12:10.422Z,99717.91
2018-11-22T15:14:37.877Z,99717.13
2018-11-22T15:17:05.303Z,99714.48
2018-11-22T15:19:32.945Z,99717.62
2018-11-22T15:22:00.390Z,99711.52
2018-11-22T15:24:27.844Z,99711.44
2018-11-22T15:26:55.285Z,99706.38
2018-11-22T15:29:22.741Z,99705.55
2018-11-22T15:31:50.166Z,99702.60
2018-11-22T15:34:17.610Z,99703.16
2018-11-22T15:36:45.037Z,99712.47
2018-11-22T15:39:12.481Z,99711.30
2018-11-22T15:41:39.925Z,99712.45
2018-11-22T15:44:07.379Z,99714.16
2018-11-22T15:46:34.808Z,99710.13
2018-11-22T15:49:02.250Z,99708.71
2018-11-22T15:51:29.685Z,99707.25
2018-11-22T15:53:57.142Z,99709.52
2018-11-22T15:56:24.598Z,99707.59
2018-11-22T15:58:52.048Z,99706.41
2018-11-22T16:01:19.495Z,99705.39
2018-11-22T16:03:46.922Z,99711.95
2018-11-22T16:06:14.364Z,99713.13
2018-11-22T16:08:41.789Z,99710.53
2018-11-22T16:11:14.811Z,99720.97
2018-11-22T16:13:36.716Z,99724.00
2018-11-22T16:16:04.180Z,99725.09
2018-11-22T16:18:31.619Z,99727.96
2018-11-22T16:20:59.046Z,99726.84
2018-11-22T16:23:26.497Z,99737.20
2018-11-22T16:25:53.922Z,99730.58
2018-11-22T16:28:21.385Z,99729.81
2018-11-22T16:30:48.814Z,99729.55
2018-11-22T16:33:16.271Z,99734.70
2018-11-22T16:35:43.700Z,99730.25
2018-11-22T16:38:11.152Z,99740.28
2018-11-22T16:40:38.609Z,99732.60
2018-11-22T16:43:07.263Z,99735.77
2018-11-22T16:45:34.714Z,99738.64
2018-11-22T16:48:02.143Z,99733.98
2018-11-22T16:50:29.581Z,99739.21
2018-11-22T16:52:57.048Z,99737.58
2018-11-22T16:55:25.011Z,99735.39
2018-11-22T16:57:52.441Z,99738.93
2018-11-22T17:00:19.899Z,99734.67
2018-11-22T17:02:47.321Z,99736.08
2018-11-22T17:05:14.780Z,99745.97
2018-11-22T17:07:42.225Z,99745.14
2018-11-22T17:10:09.657Z,99743.44
2018-11-22T17:12:37.101Z,99746.05
2018-11-22T17:15:04.525Z,99747.77
2018-11-22T17:17:31.972Z,99750.22
2018-11-22T17:19:59.429Z,99747.12
2018-11-22T17:22:26.880Z,99749.16
2018-11-22T17:24:54.328Z,99741.31
2018-11-22T17:27:21.777Z,99744.77
2018-11-22T17:29:49.921Z,99742.80
2018-11-22T17:32:17.378Z,99752.27
2018-11-22T17:34:44.802Z,99748.55
2018-11-22T17:37:12.969Z,99756.04
2018-11-22T17:39:40.495Z,99755.10
2018-11-22T17:42:07.926Z,99760.09
2018-11-22T17:44:35.369Z,99759.11
2018-11-22T17:47:02.821Z,99758.55
2018-11-22T17:49:30.245Z,99758.35
2018-11-22T17:51:57.706Z,99757.57
2018-11-22T17:54:25.125Z,99756.06
2018-11-22T17:56:52.548Z,99759.28
2018-11-22T17:59:20.208Z,99761.02
2018-11-22T18:01:47.648Z,99764.02
2018-11-22T18:04:15.113Z,99760.14
2018-11-22T18:06:42.539Z,99770.52
2018-11-22T18:09:10.005Z,99765.59
2018-11-22T18:11:37.454Z,99758.25
2018-11-22T18:14:04.885Z,99766.52
2018-11-22T18:16:32.358Z,99767.89
2018-11-22T18:18:59.777Z,99772.89
2018-11-22T18:21:27.225Z,99779.83
2018-11-22T18:23:54.652Z,99775.16
2018-11-22T18:26:22.106Z,99780.87
2018-11-22T18:28:49.533Z,99778.58
2018-11-22T18:31:16.973Z,99778.73
2018-11-22T18:33:44.422Z,99781.40
2018-11-22T18:36:11.877Z,99771.70
2018-11-22T18:38:39.313Z,99770.33
2018-11-22T18:41:06.769Z,99775.23
2018-11-22T18:43:35.393Z,99780.27
2018-11-22T18:46:01.678Z,99774.97
2018-11-22T18:48:29.105Z,99777.99
2018-11-22T18:50:56.539Z,99779.55
2018-11-22T18:53:23.983Z,99782.47
2018-11-22T18:55:51.410Z,99772.54
2018-11-22T18:58:18.893Z,99772.97
2018-11-22T19:00:46.334Z,99778.76
2018-11-22T19:03:13.792Z,99778.83
2018-11-22T19:05:41.245Z,99775.92
2018-11-22T19:08:08.689Z,99775.78
2018-11-22T19:10:36.139Z,99778.19
2018-11-22T19:13:03.564Z,99772.53
2018-11-22T19:15:31.037Z,99771.06
2018-11-22T19:17:58.492Z,99780.37
2018-11-22T19:20:25.998Z,99786.52
2018-11-22T19:22:53.402Z,99788.60
2018-11-22T19:25:21.521Z,99783.19
2018-11-22T19:27:48.971Z,99796.01
2018-11-22T19:30:16.419Z,99788.73
2018-11-22T19:32:43.961Z,99791.44
2018-11-22T19:35:11.936Z,99787.03
2018-11-22T19:37:39.400Z,99785.84
2018-11-22T19:40:07.710Z,99789.42
2018-11-22T19:42:39.351Z,99785.66
2018-11-22T19:45:06.792Z,99794.34
2018-11-22T19:47:34.225Z,99794.78
2018-11-22T19:50:01.911Z,99799.95
2018-11-22T19:52:29.344Z,99795.50
2018-11-22T19:54:56.805Z,99801.15
2018-11-22T19:57:24.241Z,99793.08
2018-11-22T19:59:51.683Z,99802.59
2018-11-22T20:02:20.338Z,99802.72
2018-11-22T20:04:47.805Z,99791.80
2018-11-22T20:07:15.232Z,99791.88
2018-11-22T20:09:42.678Z,99794.02
2018-11-22T20:12:10.119Z,99792.79
2018-11-22T20:14:37.569Z,99797.95
2018-11-22T20:17:06.522Z,99803.02
2018-11-22T20:19:34.017Z,99804.23
2018-11-22T20:22:04.214Z,99802.59
2018-11-22T20:24:32.494Z,99807.89
2018-11-22T20:27:00.041Z,99802.73
2018-11-22T20:29:28.333Z,99801.30
2018-11-22T20:31:55.785Z,99803.22
2018-11-22T20:34:23.214Z,99802.02
2018-11-22T20:36:50.664Z,99801.29
2018-11-22T20:39:18.128Z,99800.08
2018-11-22T20:41:45.582Z,99805.06
2018-11-22T20:44:13.041Z,99796.63
2018-11-22T20:46:40.511Z,99802.73
2018-11-22T20:49:07.941Z,99805.00
2018-11-22T20:51:35.410Z,99805.04
2018-11-22T20:54:02.857Z,99800.20
2018-11-22T20:56:31.453Z,99796.68
2018-11-22T20:59:00.001Z,99798.24
2018-11-22T21:01:27.442Z,99793.73
2018-11-22T21:03:54.910Z,99795.19
2018-11-22T21:06:22.345Z,99792.92
2018-11-22T21:08:49.799Z,99788.29
2018-11-22T21:11:17.229Z,99790.42
2018-11-22T21:13:45.395Z,99786.90
2018-11-22T21:16:12.919Z,99784.88
2018-11-22T21:18:40.342Z,99782.19
2018-11-22T21:21:07.789Z,99777.81
2018-11-22T21:23:35.221Z,99778.08
2018-11-22T21:26:02.678Z,99776.36
2018-11-22T21:28:30.139Z,99780.11
2018-11-22T21:30:57.593Z,99780.93
2018-11-22T21:33:25.027Z,99789.05
2018-11-22T21:35:52.493Z,99782.50
2018-11-22T21:38:19.929Z,99785.66
2018-11-22T21:40:47.354Z,99778.22
2018-11-22T21:43:14.807Z,99779.69
2018-11-22T21:45:42.252Z,99781.11
2018-11-22T21:48:09.686Z,99778.97
2018-11-22T21:50:37.147Z,99771.56
2018-11-22T21:53:05.441Z,99772.48
2018-11-22T21:55:33.813Z,99773.94
2018-11-22T21:58:01.274Z,99772.56
2018-11-22T22:00:29.561Z,99776.86
2018-11-22T22:02:57.055Z,99777.66
2018-11-22T22:05:24.521Z,99771.36
2018-11-22T22:07:51.973Z,99776.47
2018-11-22T22:10:19.446Z,99772.50
2018-11-22T22:12:47.169Z,99769.36
2018-11-22T22:15:14.730Z,99776.69
2018-11-22T22:17:42.177Z,99772.03
2018-11-22T22:20:09.604Z,99774.13
2018-11-22T22:22:37.064Z,99765.97
2018-11-22T22:25:04.495Z,99772.72
2018-11-22T22:27:31.927Z,99762.27
2018-11-22T22:30:01.826Z,99762.91
2018-11-22T22:32:29.279Z,99763.77
2018-11-22T22:34:56.702Z,99758.91
2018-11-22T22:37:24.197Z,99758.67
2018-11-22T22:39:51.665Z,99765.59
2018-11-22T22:42:19.097Z,99764.99
2018-11-22T22:44:46.545Z,99767.20
2018-11-22T22:47:14.018Z,99763.77
2018-11-22T22:49:41.493Z,99766.91
2018-11-22T22:52:08.923Z,99768.48
2018-11-22T22:54:36.398Z,99763.70
2018-11-22T22:57:03.850Z,99768.06
2018-11-22T22:59:31.282Z,99769.25
2018-11-22T23:01:58.744Z,99767.27
2018-11-22T23:04:27.265Z,99768.98
2018-11-22T23:06:54.793Z,99766.88
2018-11-22T23:09:22.335Z,99767.78
2018-11-22T23:11:50.824Z,99771.09
2018-11-22T23:14:18.259Z,99776.02
2018-11-22T23:16:45.753Z,99777.14
2018-11-22T23:19:13.198Z,99778.69
2018-11-22T23:21:40.665Z,99784.55
2018-11-22T23:24:08.134Z,99776.88
2018-11-22T23:26:35.585Z,99785.45
2018-11-22T23:29:03.922Z,99785.72
2018-11-22T23:31:31.346Z,99781.05
2018-11-22T23:33:58.799Z,99783.59
2018-11-22T23:36:26.250Z,99773.43
2018-11-22T23:38:53.700Z,99776.55
2018-11-22T23:41:21.134Z,99778.92
2018-11-22T23:43:48.577Z,99773.16
2018-11-22T23:46:16.031Z,99779.55
2018-11-22T23:48:44.382Z,99777.94
2018-11-22T23:51:11.905Z,99775.89
2018-11-22T23:53:39.333Z,99776.02
2018-11-22T23:56:06.916Z,99778.27
2018-11-22T23:58:34.345Z,99779.04
